Fremont, Indiana
Current Conditions -  °F | °C
As of 2:55 PM on Friday 31 Oct 2014 (Local Time) from KANQ Reporting Station
NA  
Wind Chill: 37°   Ceiling: NA
Heat Index: 43°   Visibility: NA
Dew Point: 32°   Wind: 9mph
Humidity: 66%   Direction: 350°N
Pressure: 29.91"   Gusts: NA
Location:  41.73°N, 84.93°W
Report Text: KANQ 311855Z AUTO 35008KT 06/00 A2991 RMK
Loading
Personal Weather Stations






























Interactive Weather Map New forecast layout! Learn more

10-Day Weather Forecast

Advertisements
Track Severe Weather on mobile